Time;durP1;ratioP1;P1;durP2;ratioP2;P2;SDS_P1;SDS_P2;PMS_P1;PMS_P2;Temp;Humidity;BMP_temperature;BMP_pressure;BME280_temperature;BME280_humidity;BME280_pressure;Samples;Min_cycle;Max_cycle;Signal;HPM_P1;HPM_P2
2022/11/13 00:01:59;;;;;;;33.83;22.90;;;;;;;3.99;100.00;153538.78;5006765;28;20034;-72
2022/11/13 00:04:43;;;;;;;36.28;23.02;;;;;;;3.98;100.00;153537.53;5006047;28;20068;-72
2022/11/13 00:07:27;;;;;;;36.60;23.65;;;;;;;4.02;100.00;153547.75;5017898;28;20053;-72
2022/11/13 00:10:11;;;;;;;35.03;24.10;;;;;;;4.16;100.00;153580.94;5007963;28;20042;-73
2022/11/13 00:12:55;;;;;;;31.85;23.00;;;;;;;4.19;100.00;153588.63;5007658;28;20512;-72
2022/11/13 00:15:39;;;;;;;35.28;22.60;;;;;;;4.17;100.00;153583.53;5000079;28;20048;-73
2022/11/13 00:18:23;;;;;;;36.20;23.50;;;;;;;4.14;100.00;153577.09;5005744;28;20033;-73
2022/11/13 00:21:15;;;;;;;35.38;24.35;;;;;;;4.30;100.00;153616.72;5006431;28;20121;-73
2022/11/13 00:23:59;;;;;;;33.15;24.38;;;;;;;4.44;100.00;153651.22;4992297;28;20125;-74
2022/11/13 00:26:43;;;;;;;35.75;23.98;;;;;;;4.51;100.00;153667.84;5004778;28;20026;-72
2022/11/13 00:29:27;;;;;;;35.33;24.25;;;;;;;4.51;100.00;153667.84;4998374;28;20038;-73
2022/11/13 00:32:11;;;;;;;30.50;23.25;;;;;;;4.55;100.00;153679.31;4996164;28;20029;-72
2022/11/13 00:34:56;;;;;;;33.20;23.15;;;;;;;4.55;100.00;153679.31;5001073;28;20961;-73
2022/11/13 00:37:40;;;;;;;32.10;22.45;;;;;;;4.51;100.00;153667.84;4986333;28;20129;-74
2022/11/13 00:40:24;;;;;;;34.30;22.75;;;;;;;4.42;100.00;153646.09;5006897;28;20033;-73
2022/11/13 00:43:08;;;;;;;31.65;21.40;;;;;;;4.34;100.00;153625.69;4990512;28;20758;-73
2022/11/13 00:45:53;;;;;;;31.02;23.38;;;;;;;4.28;100.00;153611.63;5006393;28;20029;-73
2022/11/13 00:48:37;;;;;;;29.08;21.42;;;;;;;4.20;100.00;153591.16;4995129;28;20076;-73
2022/11/13 00:51:22;;;;;;;30.40;21.98;;;;;;;4.13;100.00;153574.56;4977907;28;20025;-74
2022/11/13 00:54:06;;;;;;;31.05;21.85;;;;;;;4.07;100.00;153559.25;5005302;28;20038;-72
2022/11/13 00:56:50;;;;;;;33.88;22.88;;;;;;;4.07;100.00;153559.25;5005593;28;20150;-72
2022/11/13 00:59:35;;;;;;;33.42;22.30;;;;;;;4.00;100.00;153542.63;5001192;28;20092;-72
2022/11/13 01:02:19;;;;;;;29.05;20.70;;;;;;;3.85;100.00;153504.31;4991299;28;20038;-73
2022/11/13 01:05:03;;;;;;;30.50;20.60;;;;;;;3.79;100.00;153490.28;5005483;28;20049;-73
2022/11/13 01:07:47;;;;;;;34.25;21.77;;;;;;;3.70;100.00;153468.56;4991936;28;20038;-73
2022/11/13 01:10:33;;;;;;;28.70;20.83;;;;;;;3.65;100.00;153455.75;5001496;28;20048;-73
2022/11/13 01:13:17;;;;;;;28.48;20.45;;;;;;;3.56;100.00;153432.81;5006066;28;20046;-73
2022/11/13 01:16:05;;;;;;;28.65;21.58;;;;;;;3.56;100.00;153432.81;5003220;28;20038;-73
2022/11/13 01:18:49;;;;;;;30.63;21.05;;;;;;;3.55;100.00;153429.00;4984435;28;20121;-73
2022/11/13 01:21:34;;;;;;;29.63;20.25;;;;;;;3.47;100.00;153411.09;5005533;28;20037;-74
2022/11/13 01:24:18;;;;;;;28.63;20.83;;;;;;;3.43;100.00;153400.91;4992320;28;20037;-74
2022/11/13 01:27:03;;;;;;;33.03;22.08;;;;;;;3.38;100.00;153388.13;4990694;28;20125;-73
2022/11/13 01:29:47;;;;;;;29.33;21.55;;;;;;;3.36;100.00;153381.75;5002187;28;20042;-73
2022/11/13 01:32:31;;;;;;;32.25;21.35;;;;;;;3.34;100.00;153376.66;5001986;28;20376;-72
2022/11/13 01:35:15;;;;;;;29.30;20.80;;;;;;;3.29;100.00;153366.38;5006089;28;20976;-73
2022/11/13 01:37:59;;;;;;;33.05;21.08;;;;;;;3.26;100.00;153358.75;5006029;28;20072;-73
2022/11/13 01:40:46;;;;;;;28.60;20.70;;;;;;;3.25;100.00;153354.94;5002760;28;20057;-73
2022/11/13 01:43:32;;;;;;;29.17;19.60;;;;;;;3.19;100.00;153340.88;5001930;28;20069;-73
2022/11/13 01:46:19;;;;;;;26.23;18.42;;;;;;;3.23;100.00;153349.81;5003519;28;20492;-72
2022/11/13 01:49:07;;;;;;;29.75;20.67;;;;;;;3.19;100.00;153339.63;4984695;28;20121;-72
2022/11/13 01:51:58;;;;;;;27.83;20.02;;;;;;;3.10;100.00;153319.16;4990256;28;20045;-72
2022/11/13 01:54:48;;;;;;;26.27;20.13;;;;;;;3.03;100.00;153301.34;4998402;28;20116;-73
2022/11/13 01:57:33;;;;;;;26.67;19.40;;;;;;;3.05;100.00;153306.44;4998490;28;20534;-73
2022/11/13 02:00:18;;;;;;;23.55;18.00;;;;;;;3.05;100.00;153305.13;4989077;28;20149;-73
2022/11/13 02:03:02;;;;;;;27.70;20.65;;;;;;;3.07;100.00;153310.22;5004552;28;20038;-72
2022/11/13 02:05:46;;;;;;;26.05;19.00;;;;;;;3.08;100.00;153312.78;5005367;28;20241;-73
2022/11/13 02:08:30;;;;;;;32.17;19.20;;;;;;;3.08;100.00;153312.78;4983198;28;20145;-73
2022/11/13 02:11:15;;;;;;;23.45;18.60;;;;;;;3.00;100.00;153293.66;5003455;28;20126;-73
2022/11/13 02:14:01;;;;;;;28.90;18.70;;;;;;;3.00;100.00;153292.41;5003409;28;20042;-73
2022/11/13 02:16:47;;;;;;;23.45;18.40;;;;;;;2.98;100.00;153288.56;4999001;28;20034;-73
2022/11/13 02:19:35;;;;;;;22.13;18.25;;;;;;;2.96;100.00;153282.16;4986035;28;20038;-74
2022/11/13 02:22:38;;;;;;;25.25;18.23;;;;;;;2.92;100.00;153273.25;5002670;28;20030;-73
2022/11/13 02:25:25;;;;;;;26.35;19.25;;;;;;;2.91;100.00;153271.94;5002232;28;20533;-73
2022/11/13 02:28:10;;;;;;;26.38;19.08;;;;;;;2.89;100.00;153265.56;5003458;28;20487;-73
2022/11/13 02:30:54;;;;;;;24.70;18.88;;;;;;;2.90;100.00;153269.41;5003980;28;20442;-73
2022/11/13 02:33:38;;;;;;;27.23;18.58;;;;;;;2.88;100.00;153264.31;4999465;28;20778;-73
2022/11/13 02:36:24;;;;;;;25.95;19.75;;;;;;;2.82;100.00;153247.69;5002706;28;20033;-72
2022/11/13 02:39:11;;;;;;;26.58;19.25;;;;;;;2.81;100.00;153245.19;5002981;28;20037;-74
2022/11/13 02:41:55;;;;;;;25.33;17.48;;;;;;;2.80;100.00;153242.59;5007766;28;20132;-72
2022/11/13 02:44:40;;;;;;;29.50;19.80;;;;;;;2.80;100.00;153243.88;5000526;28;20045;-73
2022/11/13 02:47:24;;;;;;;27.65;20.67;;;;;;;2.73;100.00;153226.00;5008187;28;20038;-73
2022/11/13 02:50:09;;;;;;;28.30;20.42;;;;;;;2.70;100.00;153219.63;5008206;28;20117;-74
2022/11/13 02:52:54;;;;;;;25.70;18.90;;;;;;;2.72;100.00;153224.72;4992945;28;20045;-73
2022/11/13 02:55:38;;;;;;;27.05;19.60;;;;;;;2.72;100.00;153223.47;5000282;28;20037;-73
2022/11/13 02:58:23;;;;;;;28.15;20.17;;;;;;;2.74;100.00;153228.56;5007107;28;20022;-72
2022/11/13 03:01:07;;;;;;;29.88;21.13;;;;;;;2.75;100.00;153229.81;5008481;28;20033;-73
2022/11/13 03:03:51;;;;;;;26.20;19.85;;;;;;;2.70;100.00;153219.63;5006610;28;20025;-73
2022/11/13 03:06:35;;;;;;;29.05;21.25;;;;;;;2.63;100.00;153201.75;5005979;28;20030;-73
2022/11/13 03:09:20;;;;;;;30.33;18.77;;;;;;;2.60;100.00;153194.13;5009464;28;20042;-73
2022/11/13 03:12:06;;;;;;;28.23;20.35;;;;;;;2.65;100.00;153205.59;5006901;28;20033;-73
2022/11/13 03:14:50;;;;;;;28.90;20.83;;;;;;;2.68;100.00;153214.53;5007784;28;20395;-73
2022/11/13 03:17:35;;;;;;;30.27;19.52;;;;;;;2.68;100.00;153213.25;5003255;28;20057;-74
2022/11/13 03:20:19;;;;;;;32.28;21.30;;;;;;;2.63;100.00;153201.75;4996649;28;20092;-73
2022/11/13 03:23:04;;;;;;;26.88;20.58;;;;;;;2.58;100.00;153187.72;5009031;28;20041;-72
2022/11/13 03:25:48;;;;;;;29.70;20.45;;;;;;;2.55;100.00;153180.09;5008569;28;20446;-73
2022/11/13 03:28:33;;;;;;;37.65;22.75;;;;;;;2.54;100.00;153178.78;5004846;28;20030;-73
2022/11/13 03:31:18;;;;;;;27.92;21.92;;;;;;;2.52;100.00;153173.69;4996145;28;20335;-73
2022/11/13 03:34:02;;;;;;;29.77;21.02;;;;;;;2.53;100.00;153176.25;5011621;28;20037;-73
2022/11/13 03:36:46;;;;;;;32.85;22.67;;;;;;;2.53;100.00;153176.25;5007493;28;20096;-74
2022/11/13 03:39:31;;;;;;;32.58;22.38;;;;;;;2.52;100.00;153175.00;5016356;28;20475;-73
2022/11/13 03:42:15;;;;;;;32.42;21.58;;;;;;;2.52;100.00;153173.69;5005821;28;20041;-73
2022/11/13 03:45:00;;;;;;;32.83;22.33;;;;;;;2.50;100.00;153168.59;5009226;28;20647;-73
2022/11/13 03:47:44;;;;;;;31.77;22.02;;;;;;;2.52;100.00;153175.00;5010149;28;20447;-73
2022/11/13 03:50:28;;;;;;;33.45;22.30;;;;;;;2.52;100.00;153175.00;4998365;28;20034;-73
2022/11/13 03:53:14;;;;;;;35.58;23.75;;;;;;;2.54;100.00;153178.78;4992088;28;20038;-73
2022/11/13 03:55:59;;;;;;;29.33;21.98;;;;;;;2.49;100.00;153166.06;5010186;28;20432;-73
2022/11/13 03:58:43;;;;;;;34.13;24.38;;;;;;;2.48;100.00;153164.75;5008052;28;20026;-72
2022/11/13 04:01:26;;;;;;;31.65;23.42;;;;;;;2.52;100.00;153173.69;5003984;28;20046;-73
2022/11/13 04:04:11;;;;;;;34.15;22.90;;;;;;;2.44;100.00;153154.53;5009879;28;20042;-73
2022/11/13 04:06:55;;;;;;;30.05;21.77;;;;;;;2.40;100.00;153143.09;5023288;28;20041;-73
2022/11/13 04:09:39;;;;;;;33.33;21.77;;;;;;;2.37;100.00;153135.41;5010281;28;20041;-72
2022/11/13 04:12:24;;;;;;;30.63;21.92;;;;;;;2.32;100.00;153123.94;5007364;28;20038;-73
2022/11/13 04:15:08;;;;;;;33.78;23.10;;;;;;;2.32;100.00;153123.94;5009872;28;20049;-73
2022/11/13 04:17:52;;;;;;;32.17;23.23;;;;;;;2.28;100.00;153115.03;5004920;28;20033;-73
2022/11/13 04:20:36;;;;;;;36.67;25.60;;;;;;;2.30;100.00;153120.13;5002672;28;20034;-73
2022/11/13 04:23:20;;;;;;;33.47;23.23;;;;;;;2.29;100.00;153116.28;5019583;28;20045;-73
2022/11/13 04:26:04;;;;;;;32.10;22.40;;;;;;;2.29;100.00;153117.53;5009497;28;20029;-73
2022/11/13 04:28:49;;;;;;;34.72;22.02;;;;;;;2.32;100.00;153125.22;5009717;28;20025;-73
2022/11/13 04:31:33;;;;;;;36.38;24.05;;;;;;;2.34;100.00;153129.06;5010084;28;20483;-73
2022/11/13 04:34:17;;;;;;;51.10;30.10;;;;;;;2.33;100.00;153127.75;5005613;28;20033;-73
2022/11/13 04:37:02;;;;;;;51.90;32.33;;;;;;;2.46;100.00;153158.38;5005812;28;20046;-73
2022/11/13 04:39:45;;;;;;;52.90;31.48;;;;;;;2.49;100.00;153167.31;5008560;28;20042;-74
2022/11/13 04:42:47;;;;;;;47.03;29.17;;;;;;;2.62;100.00;153197.91;4998076;28;20755;-73
2022/11/13 04:45:32;;;;;;;47.50;30.65;;;;;;;2.75;100.00;153229.81;5014752;28;20064;-73
2022/11/13 04:48:17;;;;;;;41.67;28.17;;;;;;;2.78;100.00;153237.50;5019210;28;20043;-72
2022/11/13 04:51:01;;;;;;;43.40;28.90;;;;;;;2.83;100.00;153250.28;5009095;28;20040;-72
2022/11/13 04:53:45;;;;;;;49.83;30.42;;;;;;;2.82;100.00;153247.69;5003272;28;20057;-73
2022/11/13 04:56:30;;;;;;;53.58;32.35;;;;;;;2.83;100.00;153250.28;4996983;28;20042;-73
2022/11/13 04:59:14;;;;;;;50.70;32.20;;;;;;;2.82;100.00;153247.69;4997339;28;20037;-73
2022/11/13 05:01:58;;;;;;;53.28;31.92;;;;;;;2.89;100.00;153265.56;5004723;28;20041;-72
2022/11/13 05:04:42;;;;;;;54.47;34.05;;;;;;;3.03;100.00;153300.03;4992869;28;20045;-73
2022/11/13 05:07:26;;;;;;;52.33;31.90;;;;;;;3.02;100.00;153298.75;5008927;28;20694;-73
2022/11/13 05:10:11;;;;;;;49.95;32.53;;;;;;;2.93;100.00;153275.78;5007381;28;20060;-73
2022/11/13 05:12:55;;;;;;;53.05;32.50;;;;;;;2.80;100.00;153242.59;5007903;28;20033;-73
2022/11/13 05:15:39;;;;;;;47.45;31.65;;;;;;;2.75;100.00;153231.13;5004402;28;20087;-75
2022/11/13 05:18:24;;;;;;;47.58;30.00;;;;;;;2.71;100.00;153220.88;5008163;28;20026;-73
2022/11/13 05:21:09;;;;;;;46.05;31.50;;;;;;;2.68;100.00;153214.53;4989001;28;20049;-74
2022/11/13 05:23:54;;;;;;;49.10;32.10;;;;;;;2.64;100.00;153203.06;5004199;28;20037;-74
2022/11/13 05:26:39;;;;;;;44.95;28.67;;;;;;;2.50;100.00;153168.59;5007768;28;20391;-74
2022/11/13 05:29:23;;;;;;;47.80;30.58;;;;;;;2.37;100.00;153135.41;4996649;28;20034;-74
2022/11/13 05:32:07;;;;;;;43.92;28.27;;;;;;;2.28;100.00;153115.03;5008643;28;20716;-74
2022/11/13 05:34:52;;;;;;;39.60;27.77;;;;;;;2.28;100.00;153113.72;5006349;28;20093;-74
2022/11/13 05:37:36;;;;;;;42.08;27.80;;;;;;;2.31;100.00;153122.66;5007993;28;20037;-75
2022/11/13 05:40:20;;;;;;;43.75;28.38;;;;;;;2.33;100.00;153126.47;5004138;28;21314;-76
2022/11/13 05:43:05;;;;;;;41.03;27.05;;;;;;;2.31;100.00;153122.66;4995825;28;20048;-73
2022/11/13 05:45:49;;;;;;;42.50;27.10;;;;;;;2.29;100.00;153116.28;5004964;28;20033;-73
2022/11/13 05:48:34;;;;;;;40.83;27.30;;;;;;;2.32;100.00;153125.22;4999745;28;20040;-74
2022/11/13 05:51:21;;;;;;;44.45;30.52;;;;;;;2.34;100.00;153130.31;5017398;28;20034;-74
2022/11/13 05:54:06;;;;;;;42.35;28.30;;;;;;;2.28;100.00;153115.03;5002726;28;20383;-73
2022/11/13 05:56:50;;;;;;;47.75;28.45;;;;;;;2.26;100.00;153109.91;5007412;28;20538;-74
2022/11/13 05:59:34;;;;;;;46.45;29.20;;;;;;;2.41;100.00;153145.59;4992495;28;20034;-74
2022/11/13 06:02:18;;;;;;;49.97;32.22;;;;;;;2.57;100.00;153185.19;5008478;28;20029;-74
2022/11/13 06:05:03;;;;;;;48.85;31.85;;;;;;;2.58;100.00;153187.72;5006374;28;20553;-73
2022/11/13 06:07:48;;;;;;;47.28;29.98;;;;;;;2.61;100.00;153195.38;5005711;28;20046;-75
2022/11/13 06:10:32;;;;;;;45.35;30.45;;;;;;;2.57;100.00;153186.44;5004101;28;20038;-76
2022/11/13 06:13:16;;;;;;;40.92;28.33;;;;;;;2.42;100.00;153149.44;5020667;28;20496;-75
2022/11/13 06:16:07;;;;;;;38.95;27.35;;;;;;;2.29;100.00;153116.28;5008315;28;20044;-77
2022/11/13 06:19:00;;;;;;;43.78;28.10;;;;;;;2.18;100.00;153088.22;5002177;28;20117;-75
2022/11/13 06:21:44;;;;;;;40.47;27.00;;;;;;;2.13;100.00;153076.75;5015264;28;20042;-73
2022/11/13 06:24:28;;;;;;;47.17;30.15;;;;;;;2.19;100.00;153092.06;4999963;28;20575;-75
2022/11/13 06:27:12;;;;;;;47.10;29.98;;;;;;;2.32;100.00;153123.94;4998635;28;20053;-74
2022/11/13 06:29:56;;;;;;;48.47;29.90;;;;;;;2.27;100.00;153112.44;5000989;28;20026;-73
2022/11/13 06:32:40;;;;;;;39.85;27.25;;;;;;;2.17;100.00;153086.94;5016574;28;20112;-75
2022/11/13 06:35:24;;;;;;;38.30;26.55;;;;;;;2.07;100.00;153062.72;5007924;28;20145;-75
2022/11/13 06:38:09;;;;;;;40.95;27.38;;;;;;;2.02;100.00;153049.97;5007923;28;20061;-74
2022/11/13 06:40:53;;;;;;;41.80;26.73;;;;;;;2.02;100.00;153049.97;4999091;28;20480;-73
2022/11/13 06:43:37;;;;;;;46.45;27.88;;;;;;;2.12;100.00;153074.19;5003629;28;20049;-74
2022/11/13 06:46:23;;;;;;;48.45;31.08;;;;;;;2.19;100.00;153092.06;5010031;28;20053;-74
2022/11/13 06:49:07;;;;;;;45.75;29.33;;;;;;;2.25;100.00;153106.09;4992772;28;20078;-74
2022/11/13 06:51:51;;;;;;;50.22;32.03;;;;;;;2.28;100.00;153115.03;5007348;28;20033;-74
2022/11/13 06:54:35;;;;;;;54.47;31.98;;;;;;;2.30;100.00;153120.13;4992722;28;20126;-74
2022/11/13 06:57:20;;;;;;;51.08;31.98;;;;;;;2.37;100.00;153135.41;5005953;28;20045;-73
2022/11/13 07:00:05;;;;;;;51.22;32.53;;;;;;;2.41;100.00;153146.94;5005969;28;20042;-73
2022/11/13 07:02:49;;;;;;;43.85;29.70;;;;;;;2.42;100.00;153148.19;5015804;28;20566;-71
2022/11/13 07:05:36;;;;;;;50.72;31.63;;;;;;;2.43;100.00;153150.72;5000165;28;20049;-74
2022/11/13 07:08:20;;;;;;;56.20;33.17;;;;;;;2.52;100.00;153173.69;4996737;28;20046;-73
2022/11/13 07:11:06;;;;;;;54.10;33.13;;;;;;;2.54;100.00;153178.78;5002448;28;20037;-73
2022/11/13 07:13:50;;;;;;;48.65;32.00;;;;;;;2.59;100.00;153190.28;5005749;28;20048;-73
2022/11/13 07:16:35;;;;;;;52.47;32.67;;;;;;;2.65;100.00;153205.59;4999888;28;20033;-74
2022/11/13 07:19:19;;;;;;;55.20;33.20;;;;;;;2.66;100.00;153209.44;5002714;28;20042;-73
2022/11/13 07:22:03;;;;;;;60.00;34.47;;;;;;;2.72;100.00;153223.47;5004700;28;20132;-71
2022/11/13 07:24:47;;;;;;;56.78;34.17;;;;;;;2.82;100.00;153247.69;5000461;28;20034;-74
2022/11/13 07:27:32;;;;;;;56.50;33.95;;;;;;;2.93;100.00;153275.78;5001695;28;20033;-74
2022/11/13 07:30:17;;;;;;;58.72;35.45;;;;;;;2.94;100.00;153278.34;5003330;28;20571;-72
2022/11/13 07:33:02;;;;;;;55.58;35.92;;;;;;;3.03;100.00;153300.03;5010838;28;20484;-68
2022/11/13 07:35:47;;;;;;;61.78;37.38;;;;;;;3.12;100.00;153323.00;5004818;28;20084;-72
2022/11/13 07:38:31;;;;;;;63.58;38.53;;;;;;;3.20;100.00;153342.16;5012720;28;20025;-73
2022/11/13 07:41:15;;;;;;;65.13;39.22;;;;;;;3.19;100.00;153339.63;5003235;28;20138;-74
2022/11/13 07:43:59;;;;;;;69.63;39.45;;;;;;;3.27;100.00;153361.28;5009801;28;20037;-74
2022/11/13 07:46:43;;;;;;;75.57;38.50;;;;;;;3.31;100.00;153371.53;4986228;28;20033;-73
2022/11/13 07:49:28;;;;;;;65.30;37.13;;;;;;;3.38;100.00;153388.13;5005200;28;20041;-71
2022/11/13 07:52:12;;;;;;;112.78;37.45;;;;;;;3.39;100.00;153390.69;5009320;28;20124;-73
2022/11/13 07:54:57;;;;;;;66.50;35.15;;;;;;;3.49;100.00;153414.94;5010230;28;20467;-74
2022/11/13 07:57:41;;;;;;;104.28;35.83;;;;;;;3.51;100.00;153420.03;5005398;28;20040;-74
2022/11/13 08:00:27;;;;;;;88.50;37.55;;;;;;;3.55;100.00;153429.00;5009408;28;20108;-74
2022/11/13 08:03:13;;;;;;;72.30;35.47;;;;;;;3.57;100.00;153435.34;5021774;28;20046;-73
2022/11/13 08:06:05;;;;;;;98.80;38.03;;;;;;;3.60;100.00;153443.03;5009469;28;20088;-74
2022/11/13 08:08:50;;;;;;;91.20;36.28;;;;;;;3.66;100.00;153457.06;4998922;28;20562;-74
2022/11/13 08:11:34;;;;;;;99.25;38.50;;;;;;;3.75;100.00;153478.75;5008907;28;20092;-74
2022/11/13 08:14:19;;;;;;;103.88;39.88;;;;;;;3.79;100.00;153490.28;5008270;28;20041;-73
2022/11/13 08:17:03;;;;;;;97.93;37.75;;;;;;;3.85;100.00;153505.59;5004326;28;20380;-71
2022/11/13 08:19:47;;;;;;;102.20;39.30;;;;;;;3.97;100.00;153533.69;4998504;28;20042;-73
2022/11/13 08:22:32;;;;;;;100.43;39.60;;;;;;;4.00;100.00;153542.63;5014056;28;20034;-73
2022/11/13 08:25:17;;;;;;;94.93;41.22;;;;;;;4.05;100.00;153554.09;5007326;28;20030;-74
2022/11/13 08:28:01;;;;;;;90.03;39.63;;;;;;;4.19;100.00;153588.63;5007314;28;20136;-70
2022/11/13 08:30:45;;;;;;;86.63;36.33;;;;;;;4.33;100.00;152214.66;5006969;28;20049;-75
2022/11/13 08:33:30;;;;;;;86.25;36.58;;;;;;;4.35;100.00;150213.78;5005471;28;20034;-74
2022/11/13 08:36:14;;;;;;;87.97;36.97;;;;;;;4.41;100.00;146798.53;5006633;28;20096;-74
2022/11/13 08:38:58;;;;;;;88.35;36.25;;;;;;;4.54;100.00;142579.16;4995891;28;20030;-74
2022/11/13 08:41:43;;;;;;;93.63;37.67;;;;;;;4.61;100.00;139572.00;5008005;28;20072;-74
2022/11/13 08:44:27;;;;;;;85.82;36.33;;;;;;;4.65;100.00;137232.94;5007305;28;20045;-73
2022/11/13 08:47:11;;;;;;;95.13;36.95;;;;;;;4.71;100.00;134226.34;5021218;28;20068;-74
2022/11/13 08:49:55;;;;;;;89.60;35.72;;;;;;;4.72;100.00;132552.19;4993876;28;20050;-74
2022/11/13 08:52:40;;;;;;;80.55;35.50;;;;;;;4.81;100.00;130896.03;5004736;28;20029;-75
2022/11/13 08:55:25;;;;;;;95.93;35.63;;;;;;;4.83;100.00;130229.09;5008717;28;20502;-75
2022/11/13 08:58:10;;;;;;;96.10;35.33;;;;;;;4.81;100.00;129220.78;4993409;28;20037;-74
2022/11/13 09:01:02;;;;;;;98.97;34.70;;;;;;;4.89;100.00;127227.19;4992837;28;20040;-73
2022/11/13 09:03:48;;;;;;;94.23;36.47;;;;;;;4.94;100.00;125562.59;4991897;28;20033;-74
2022/11/13 09:06:33;;;;;;;90.35;37.00;;;;;;;4.93;100.00;124891.09;5001879;28;20046;-74
2022/11/13 09:09:18;;;;;;;89.00;37.05;;;;;;;4.97;100.00;123561.75;4993406;28;20041;-71
2022/11/13 09:12:03;;;;;;;94.30;36.72;;;;;;;5.03;100.00;121900.16;5003565;28;20614;-72
2022/11/13 09:14:47;;;;;;;106.43;39.15;;;;;;;5.06;100.00;119230.94;5004772;28;20062;-72
2022/11/13 09:17:31;;;;;;;93.90;36.42;;;;;;;5.13;100.00;116570.91;5008473;28;20034;-72
2022/11/13 09:20:16;;;;;;;93.28;38.80;;;;;;;5.21;100.00;114247.84;4989475;28;20046;-75
2022/11/13 09:23:05;;;;;;;100.55;40.08;;;;;;;5.23;100.00;114250.66;5009415;28;20403;-73
2022/11/13 09:25:50;;;;;;;103.93;41.95;;;;;;;5.23;100.00;113916.69;5007202;28;20029;-72
2022/11/13 09:28:34;;;;;;;100.78;38.15;;;;;;;5.16;100.00;115574.44;5006487;28;20029;-74
2022/11/13 09:31:18;;;;;;;97.75;37.75;;;;;;;5.23;100.00;116923.38;5000872;28;20073;-74
2022/11/13 09:34:02;;;;;;;101.72;38.40;;;;;;;5.23;100.00;117591.84;5003790;28;20506;-75
2022/11/13 09:36:47;;;;;;;98.97;37.90;;;;;;;5.32;100.00;118277.03;5007391;28;20712;-74
2022/11/13 09:39:31;;;;;;;112.88;40.45;;;;;;;5.33;100.00;119283.19;5013911;28;20038;-75
2022/11/13 09:42:25;;;;;;;102.20;40.45;;;;;;;5.43;100.00;119302.88;5003360;28;20037;-74
2022/11/13 09:45:14;;;;;;;113.00;42.92;;;;;;;5.48;100.00;119646.28;5005690;28;20491;-75
2022/11/13 09:48:11;;;;;;;99.00;40.63;;;;;;;5.54;100.00;120662.06;4993151;28;20037;-74
2022/11/13 09:51:02;;;;;;;110.07;42.08;;;;;;;5.64;100.00;121350.50;5006984;28;20038;-74
2022/11/13 09:53:47;;;;;;;106.03;40.92;;;;;;;5.69;100.00;123034.94;5007119;28;20057;-75
2022/11/13 09:57:12;;;;;;;97.70;40.22;;;;;;;5.71;100.00;127059.38;5007329;28;20159;-74
2022/11/13 10:00:10;;;;;;;92.72;39.80;;;;;;;5.83;100.00;130104.94;5015188;28;20069;-75
2022/11/13 10:03:23;;;;;;;95.70;42.05;;;;;;;5.80;100.00;135471.34;4989589;28;20033;-74
2022/11/13 10:06:19;;;;;;;84.60;38.60;;;;;;;5.96;100.00;137859.56;4988870;28;20061;-75
2022/11/13 10:09:57;;;;;;;82.15;39.78;;;;;;;6.00;100.00;145610.19;5004127;28;20370;-74
2022/11/13 10:12:43;;;;;;;78.38;38.35;;;;;;;5.94;100.00;154025.78;4955273;28;20066;-75
2022/11/13 10:15:30;;;;;;;74.32;38.55;;;;;;;5.93;100.00;154023.19;5012923;28;20109;-73
2022/11/13 10:18:27;;;;;;;76.60;38.05;;;;;;;5.88;100.00;154010.44;5015423;28;20058;-74
2022/11/13 10:21:29;;;;;;;74.22;37.08;;;;;;;5.84;100.00;154000.22;5006604;28;20133;-75
2022/11/13 10:24:25;;;;;;;68.40;37.53;;;;;;;5.81;100.00;153993.78;4998850;28;20041;-75
2022/11/13 10:27:12;;;;;;;70.30;37.40;;;;;;;5.78;100.00;153986.16;5008192;28;20372;-75
2022/11/13 10:29:56;;;;;;;70.72;38.25;;;;;;;5.70;100.00;153964.41;5003965;28;20030;-73
2022/11/13 10:32:42;;;;;;;74.78;38.50;;;;;;;5.71;100.00;153966.91;5006398;28;20029;-75
2022/11/13 10:35:40;;;;;;;66.75;36.88;;;;;;;5.78;100.00;153986.16;5012169;28;20484;-75
2022/11/13 10:38:37;;;;;;;64.82;35.88;;;;;;;5.76;100.00;153979.72;4992912;28;20077;-74
2022/11/13 10:41:21;;;;;;;62.58;35.88;;;;;;;5.75;100.00;153978.47;5006537;28;20034;-75
2022/11/13 10:44:19;;;;;;;61.30;36.80;;;;;;;5.82;100.00;153995.06;5003511;28;20407;-74
2022/11/13 10:47:14;;;;;;;57.45;35.85;;;;;;;5.79;100.00;153988.69;4992536;28;20037;-75
2022/11/13 10:50:21;;;;;;;67.45;37.33;;;;;;;5.83;100.00;153998.91;4997189;28;20054;-75
2022/11/13 10:53:15;;;;;;;59.72;34.92;;;;;;;5.85;100.00;154002.75;5020067;28;20646;-75
2022/11/13 10:55:59;;;;;;;66.28;36.55;;;;;;;5.78;100.00;153986.16;5008226;28;20510;-75
2022/11/13 10:58:43;;;;;;;72.40;38.92;;;;;;;5.81;100.00;153992.53;5001430;28;20034;-74
2022/11/13 11:01:28;;;;;;;62.53;34.88;;;;;;;5.80;100.00;153989.94;5003508;28;20061;-74
2022/11/13 11:04:18;;;;;;;68.25;37.22;;;;;;;5.85;100.00;154002.75;5006788;28;20045;-74
2022/11/13 11:07:14;;;;;;;67.97;35.97;;;;;;;5.87;100.00;154006.59;5010138;28;20033;-75
2022/11/13 11:09:59;;;;;;;71.95;36.70;;;;;;;5.82;100.00;153996.38;5007491;28;20480;-74
2022/11/13 11:13:10;;;;;;;76.45;38.85;;;;;;;5.79;100.00;153988.69;5011345;28;20029;-75
2022/11/13 11:15:58;;;;;;;72.80;39.25;;;;;;;5.88;100.00;154010.44;5016006;28;20038;-74
2022/11/13 11:18:54;;;;;;;66.53;38.22;;;;;;;5.88;100.00;154010.44;5027485;28;20034;-75
2022/11/13 11:21:41;;;;;;;71.22;38.30;;;;;;;5.88;100.00;154010.44;5018442;28;20029;-74
2022/11/13 11:24:38;;;;;;;75.70;40.58;;;;;;;5.93;100.00;154021.94;5006922;28;20030;-74
2022/11/13 11:27:36;;;;;;;85.03;43.03;;;;;;;5.99;100.00;154038.63;5013156;28;20042;-74
2022/11/13 11:30:23;;;;;;;78.40;40.90;;;;;;;6.07;100.00;154056.53;5007529;28;20042;-75
2022/11/13 11:33:16;;;;;;;73.30;41.13;;;;;;;6.12;100.00;154069.31;5010930;28;20030;-75
2022/11/13 11:36:12;;;;;;;73.57;39.97;;;;;;;6.16;100.00;154080.84;5011623;28;20034;-76
2022/11/13 11:39:01;;;;;;;69.85;38.45;;;;;;;6.21;100.00;154093.59;5008026;28;20030;-76
2022/11/13 11:42:05;;;;;;;61.22;37.47;;;;;;;6.29;100.00;154111.50;5010740;28;20483;-75
2022/11/13 11:45:14;;;;;;;54.17;34.80;;;;;;;6.31;100.00;154117.94;5010178;28;20034;-75
2022/11/13 11:48:00;;;;;;;51.92;34.85;;;;;;;6.37;100.00;154132.03;4998317;28;20042;-74
2022/11/13 11:51:20;;;;;;;48.28;33.15;;;;;;;6.43;100.00;154147.34;5011620;28;20042;-75
2022/11/13 11:54:04;;;;;;;50.90;36.08;;;;;;;6.49;100.00;154161.44;5005902;28;20046;-74
2022/11/13 11:56:59;;;;;;;46.92;32.35;;;;;;;6.53;100.00;154171.66;4998815;28;20057;-73
2022/11/13 12:00:08;;;;;;;42.90;30.38;;;;;;;6.57;100.00;154181.88;5007547;28;20482;-74
2022/11/13 12:03:08;;;;;;;39.35;29.27;;;;;;;6.60;100.00;154189.59;4977465;28;20050;-74
2022/11/13 12:06:28;;;;;;;41.15;28.42;;;;;;;6.64;100.00;154199.81;5001967;28;20496;-74
2022/11/13 12:09:45;;;;;;;37.35;26.42;;;;;;;6.57;100.00;154181.88;4993897;28;20042;-74
2022/11/13 12:12:43;;;;;;;36.42;26.45;;;;;;;6.53;100.00;154172.94;4987860;28;20038;-74
2022/11/13 12:15:36;;;;;;;36.70;25.60;;;;;;;6.58;100.00;154185.72;5019466;28;20037;-75
2022/11/13 12:18:35;;;;;;;31.67;24.05;;;;;;;6.59;100.00;154188.31;5004199;28;20037;-75
2022/11/13 12:21:23;;;;;;;30.45;23.85;;;;;;;6.66;100.00;154203.66;5009287;28;20042;-75
2022/11/13 12:24:17;;;;;;;31.48;23.23;;;;;;;6.72;100.00;154219.00;5008031;28;20030;-74
2022/11/13 12:27:27;;;;;;;32.22;23.27;;;;;;;6.70;100.00;154213.88;5007103;28;20029;-75
2022/11/13 12:30:26;;;;;;;30.50;22.33;;;;;;;6.79;100.00;154238.19;5007023;28;20197;-74
2022/11/13 12:33:23;;;;;;;29.63;22.17;;;;;;;6.87;100.00;154256.13;5007948;28;20430;-74
2022/11/13 12:36:10;;;;;;;28.00;21.33;;;;;;;6.87;100.00;154257.38;5003771;28;20037;-74
2022/11/13 12:39:23;;;;;;;30.00;20.30;;;;;;;6.90;100.00;154265.09;5006135;28;20099;-75
2022/11/13 12:42:13;;;;;;;26.52;20.63;;;;;;;6.93;100.00;154271.47;5006304;28;20042;-75